sensor_id;sensor_type;location;lat;lon;timestamp;P1;durP1;ratioP1;P2;durP2;ratioP2
7027;SDS011;3555;53.248;10.336;2023-04-01T00:00:58;3.77;;;1.93;;
7027;SDS011;3555;53.248;10.336;2023-04-01T00:03:27;5.93;;;2.20;;
7027;SDS011;3555;53.248;10.336;2023-04-01T00:05:56;4.43;;;2.00;;
7027;SDS011;3555;53.248;10.336;2023-04-01T00:08:24;7.83;;;2.10;;
7027;SDS011;3555;53.248;10.336;2023-04-01T00:10:52;5.50;;;2.47;;
7027;SDS011;3555;53.248;10.336;2023-04-01T00:13:20;4.53;;;2.30;;
7027;SDS011;3555;53.248;10.336;2023-04-01T00:15:48;6.70;;;2.50;;
7027;SDS011;3555;53.248;10.336;2023-04-01T00:18:15;5.17;;;2.20;;
7027;SDS011;3555;53.248;10.336;2023-04-01T00:20:44;5.37;;;2.60;;
7027;SDS011;3555;53.248;10.336;2023-04-01T00:23:11;6.87;;;2.33;;
7027;SDS011;3555;53.248;10.336;2023-04-01T00:25:38;4.03;;;2.33;;
7027;SDS011;3555;53.248;10.336;2023-04-01T00:28:05;5.50;;;2.50;;
7027;SDS011;3555;53.248;10.336;2023-04-01T00:30:32;4.40;;;2.27;;
7027;SDS011;3555;53.248;10.336;2023-04-01T00:32:59;5.13;;;2.27;;
7027;SDS011;3555;53.248;10.336;2023-04-01T00:35:26;5.93;;;2.77;;
7027;SDS011;3555;53.248;10.336;2023-04-01T00:37:55;8.00;;;2.57;;
7027;SDS011;3555;53.248;10.336;2023-04-01T00:40:24;4.03;;;2.13;;
7027;SDS011;3555;53.248;10.336;2023-04-01T00:42:53;5.53;;;2.30;;
7027;SDS011;3555;53.248;10.336;2023-04-01T00:45:28;8.30;;;3.90;;
7027;SDS011;3555;53.248;10.336;2023-04-01T00:47:57;5.63;;;2.60;;
7027;SDS011;3555;53.248;10.336;2023-04-01T00:50:27;8.73;;;2.53;;
7027;SDS011;3555;53.248;10.336;2023-04-01T00:52:58;6.60;;;2.60;;
7027;SDS011;3555;53.248;10.336;2023-04-01T00:55:27;6.73;;;2.57;;
7027;SDS011;3555;53.248;10.336;2023-04-01T00:57:58;4.83;;;2.80;;
7027;SDS011;3555;53.248;10.336;2023-04-01T01:00:26;6.90;;;3.47;;
7027;SDS011;3555;53.248;10.336;2023-04-01T01:02:53;4.57;;;2.43;;
7027;SDS011;3555;53.248;10.336;2023-04-01T01:05:21;4.87;;;2.57;;
7027;SDS011;3555;53.248;10.336;2023-04-01T01:08:00;3.93;;;2.50;;
7027;SDS011;3555;53.248;10.336;2023-04-01T01:10:31;5.97;;;2.67;;
7027;SDS011;3555;53.248;10.336;2023-04-01T01:13:02;6.17;;;2.60;;
7027;SDS011;3555;53.248;10.336;2023-04-01T01:15:36;7.77;;;2.70;;
7027;SDS011;3555;53.248;10.336;2023-04-01T01:18:09;6.17;;;2.67;;
7027;SDS011;3555;53.248;10.336;2023-04-01T01:21:05;8.07;;;2.93;;
7027;SDS011;3555;53.248;10.336;2023-04-01T01:26:59;4.67;;;2.90;;
7027;SDS011;3555;53.248;10.336;2023-04-01T01:32:38;6.10;;;2.50;;
7027;SDS011;3555;53.248;10.336;2023-04-01T01:35:24;5.23;;;2.67;;
7027;SDS011;3555;53.248;10.336;2023-04-01T01:37:55;4.90;;;2.60;;
7027;SDS011;3555;53.248;10.336;2023-04-01T01:40:24;3.57;;;2.83;;
7027;SDS011;3555;53.248;10.336;2023-04-01T01:42:55;5.93;;;2.87;;
7027;SDS011;3555;53.248;10.336;2023-04-01T01:45:26;3.97;;;2.70;;
7027;SDS011;3555;53.248;10.336;2023-04-01T01:47:56;5.67;;;2.77;;
7027;SDS011;3555;53.248;10.336;2023-04-01T01:50:26;6.93;;;2.93;;
7027;SDS011;3555;53.248;10.336;2023-04-01T01:53:04;7.70;;;2.97;;
7027;SDS011;3555;53.248;10.336;2023-04-01T01:55:33;5.60;;;3.73;;
7027;SDS011;3555;53.248;10.336;2023-04-01T01:58:02;5.10;;;2.60;;
7027;SDS011;3555;53.248;10.336;2023-04-01T02:00:34;6.57;;;2.97;;
7027;SDS011;3555;53.248;10.336;2023-04-01T02:03:02;5.50;;;3.10;;
7027;SDS011;3555;53.248;10.336;2023-04-01T02:05:32;8.60;;;3.10;;
7027;SDS011;3555;53.248;10.336;2023-04-01T02:08:01;6.23;;;2.90;;
7027;SDS011;3555;53.248;10.336;2023-04-01T02:10:34;10.20;;;3.83;;
7027;SDS011;3555;53.248;10.336;2023-04-01T02:13:07;9.57;;;3.60;;
7027;SDS011;3555;53.248;10.336;2023-04-01T02:15:41;5.63;;;2.83;;
7027;SDS011;3555;53.248;10.336;2023-04-01T02:18:12;5.80;;;3.30;;
7027;SDS011;3555;53.248;10.336;2023-04-01T02:20:42;6.10;;;3.70;;
7027;SDS011;3555;53.248;10.336;2023-04-01T02:23:10;5.43;;;3.07;;
7027;SDS011;3555;53.248;10.336;2023-04-01T02:25:38;10.77;;;3.67;;
7027;SDS011;3555;53.248;10.336;2023-04-01T02:28:07;6.60;;;3.00;;
7027;SDS011;3555;53.248;10.336;2023-04-01T02:30:36;8.43;;;3.33;;
7027;SDS011;3555;53.248;10.336;2023-04-01T02:33:07;8.43;;;3.37;;
7027;SDS011;3555;53.248;10.336;2023-04-01T02:35:35;6.07;;;3.20;;
7027;SDS011;3555;53.248;10.336;2023-04-01T02:38:04;6.83;;;3.30;;
7027;SDS011;3555;53.248;10.336;2023-04-01T02:40:40;6.73;;;3.57;;
7027;SDS011;3555;53.248;10.336;2023-04-01T02:43:12;6.03;;;3.10;;
7027;SDS011;3555;53.248;10.336;2023-04-01T02:45:39;5.90;;;3.40;;
7027;SDS011;3555;53.248;10.336;2023-04-01T02:48:06;10.73;;;3.20;;
7027;SDS011;3555;53.248;10.336;2023-04-01T02:50:33;6.33;;;3.03;;
7027;SDS011;3555;53.248;10.336;2023-04-01T02:53:00;7.23;;;3.40;;
7027;SDS011;3555;53.248;10.336;2023-04-01T02:55:30;7.50;;;3.23;;
7027;SDS011;3555;53.248;10.336;2023-04-01T02:57:56;5.17;;;2.80;;
7027;SDS011;3555;53.248;10.336;2023-04-01T03:00:23;6.30;;;3.30;;
7027;SDS011;3555;53.248;10.336;2023-04-01T03:02:51;5.87;;;3.10;;
7027;SDS011;3555;53.248;10.336;2023-04-01T03:05:18;8.50;;;3.60;;
7027;SDS011;3555;53.248;10.336;2023-04-01T03:07:45;6.43;;;3.20;;
7027;SDS011;3555;53.248;10.336;2023-04-01T03:10:12;7.90;;;3.57;;
7027;SDS011;3555;53.248;10.336;2023-04-01T03:12:41;7.77;;;3.13;;
7027;SDS011;3555;53.248;10.336;2023-04-01T03:15:09;4.50;;;2.90;;
7027;SDS011;3555;53.248;10.336;2023-04-01T03:17:37;7.77;;;3.50;;
7027;SDS011;3555;53.248;10.336;2023-04-01T03:20:05;6.13;;;3.10;;
7027;SDS011;3555;53.248;10.336;2023-04-01T03:22:33;6.60;;;3.17;;
7027;SDS011;3555;53.248;10.336;2023-04-01T03:25:00;7.27;;;3.27;;
7027;SDS011;3555;53.248;10.336;2023-04-01T03:27:27;4.57;;;3.03;;
7027;SDS011;3555;53.248;10.336;2023-04-01T03:29:55;8.67;;;3.77;;
7027;SDS011;3555;53.248;10.336;2023-04-01T03:32:22;5.60;;;3.03;;
7027;SDS011;3555;53.248;10.336;2023-04-01T03:34:49;5.90;;;3.10;;
7027;SDS011;3555;53.248;10.336;2023-04-01T03:37:16;7.53;;;3.57;;
7027;SDS011;3555;53.248;10.336;2023-04-01T03:39:43;6.67;;;3.57;;
7027;SDS011;3555;53.248;10.336;2023-04-01T03:42:10;9.07;;;3.70;;
7027;SDS011;3555;53.248;10.336;2023-04-01T03:44:37;8.23;;;3.27;;
7027;SDS011;3555;53.248;10.336;2023-04-01T03:47:05;7.70;;;3.40;;
7027;SDS011;3555;53.248;10.336;2023-04-01T03:49:34;8.07;;;3.90;;
7027;SDS011;3555;53.248;10.336;2023-04-01T03:52:01;5.23;;;3.20;;
7027;SDS011;3555;53.248;10.336;2023-04-01T03:54:28;5.67;;;3.67;;
7027;SDS011;3555;53.248;10.336;2023-04-01T03:56:55;9.07;;;3.57;;
7027;SDS011;3555;53.248;10.336;2023-04-01T03:59:23;6.70;;;3.60;;
7027;SDS011;3555;53.248;10.336;2023-04-01T04:01:49;7.73;;;4.30;;
7027;SDS011;3555;53.248;10.336;2023-04-01T04:04:18;6.13;;;3.30;;
7027;SDS011;3555;53.248;10.336;2023-04-01T04:06:45;7.53;;;3.43;;
7027;SDS011;3555;53.248;10.336;2023-04-01T04:09:11;6.70;;;3.30;;
7027;SDS011;3555;53.248;10.336;2023-04-01T04:11:38;10.90;;;4.10;;
7027;SDS011;3555;53.248;10.336;2023-04-01T04:14:05;5.53;;;3.47;;
7027;SDS011;3555;53.248;10.336;2023-04-01T04:16:34;5.37;;;3.00;;
7027;SDS011;3555;53.248;10.336;2023-04-01T04:19:02;7.00;;;3.57;;
7027;SDS011;3555;53.248;10.336;2023-04-01T04:21:31;7.83;;;3.80;;
7027;SDS011;3555;53.248;10.336;2023-04-01T04:23:58;6.87;;;3.53;;
7027;SDS011;3555;53.248;10.336;2023-04-01T04:26:25;5.33;;;3.50;;
7027;SDS011;3555;53.248;10.336;2023-04-01T04:28:53;8.07;;;3.87;;
7027;SDS011;3555;53.248;10.336;2023-04-01T04:31:21;8.57;;;4.07;;
7027;SDS011;3555;53.248;10.336;2023-04-01T04:33:49;8.00;;;3.30;;
7027;SDS011;3555;53.248;10.336;2023-04-01T04:36:16;8.77;;;4.13;;
7027;SDS011;3555;53.248;10.336;2023-04-01T04:38:45;5.30;;;3.70;;
7027;SDS011;3555;53.248;10.336;2023-04-01T04:41:12;7.97;;;3.83;;
7027;SDS011;3555;53.248;10.336;2023-04-01T04:43:40;7.83;;;3.70;;
7027;SDS011;3555;53.248;10.336;2023-04-01T04:46:07;7.47;;;3.47;;
7027;SDS011;3555;53.248;10.336;2023-04-01T04:48:35;7.60;;;3.80;;
7027;SDS011;3555;53.248;10.336;2023-04-01T04:51:02;5.13;;;3.77;;
7027;SDS011;3555;53.248;10.336;2023-04-01T04:53:29;6.53;;;3.60;;
7027;SDS011;3555;53.248;10.336;2023-04-01T04:55:58;7.57;;;3.63;;
7027;SDS011;3555;53.248;10.336;2023-04-01T04:58:25;5.70;;;3.63;;
7027;SDS011;3555;53.248;10.336;2023-04-01T05:00:51;7.80;;;3.93;;
7027;SDS011;3555;53.248;10.336;2023-04-01T05:03:18;5.70;;;3.30;;
7027;SDS011;3555;53.248;10.336;2023-04-01T05:05:49;7.80;;;3.90;;
7027;SDS011;3555;53.248;10.336;2023-04-01T05:08:16;7.13;;;3.70;;
7027;SDS011;3555;53.248;10.336;2023-04-01T05:10:43;7.83;;;4.13;;
7027;SDS011;3555;53.248;10.336;2023-04-01T05:13:12;7.47;;;3.77;;
7027;SDS011;3555;53.248;10.336;2023-04-01T05:15:39;7.30;;;4.27;;
7027;SDS011;3555;53.248;10.336;2023-04-01T05:18:06;12.17;;;4.33;;
7027;SDS011;3555;53.248;10.336;2023-04-01T05:20:33;7.57;;;4.10;;
7027;SDS011;3555;53.248;10.336;2023-04-01T05:23:00;10.10;;;4.20;;
7027;SDS011;3555;53.248;10.336;2023-04-01T05:25:27;7.53;;;4.07;;
7027;SDS011;3555;53.248;10.336;2023-04-01T05:27:54;9.63;;;4.50;;
7027;SDS011;3555;53.248;10.336;2023-04-01T05:30:22;9.17;;;4.60;;
7027;SDS011;3555;53.248;10.336;2023-04-01T05:32:49;8.60;;;4.27;;
7027;SDS011;3555;53.248;10.336;2023-04-01T05:35:16;8.00;;;4.13;;
7027;SDS011;3555;53.248;10.336;2023-04-01T05:37:43;7.33;;;4.13;;
7027;SDS011;3555;53.248;10.336;2023-04-01T05:40:10;9.40;;;4.80;;
7027;SDS011;3555;53.248;10.336;2023-04-01T05:42:37;7.23;;;4.37;;
7027;SDS011;3555;53.248;10.336;2023-04-01T05:45:04;10.30;;;4.63;;
7027;SDS011;3555;53.248;10.336;2023-04-01T05:47:33;7.60;;;4.63;;
7027;SDS011;3555;53.248;10.336;2023-04-01T05:50:00;8.50;;;4.27;;
7027;SDS011;3555;53.248;10.336;2023-04-01T05:52:27;10.20;;;4.80;;
7027;SDS011;3555;53.248;10.336;2023-04-01T05:54:54;10.63;;;5.33;;
7027;SDS011;3555;53.248;10.336;2023-04-01T05:57:21;6.10;;;3.67;;
7027;SDS011;3555;53.248;10.336;2023-04-01T05:59:48;6.43;;;4.73;;
7027;SDS011;3555;53.248;10.336;2023-04-01T06:02:16;6.33;;;4.33;;
7027;SDS011;3555;53.248;10.336;2023-04-01T06:04:45;7.80;;;4.70;;
7027;SDS011;3555;53.248;10.336;2023-04-01T06:07:12;8.93;;;4.60;;
7027;SDS011;3555;53.248;10.336;2023-04-01T06:09:40;8.03;;;4.10;;
7027;SDS011;3555;53.248;10.336;2023-04-01T06:12:12;8.90;;;4.87;;
7027;SDS011;3555;53.248;10.336;2023-04-01T06:14:55;8.30;;;4.00;;
7027;SDS011;3555;53.248;10.336;2023-04-01T06:17:41;12.97;;;4.60;;
7027;SDS011;3555;53.248;10.336;2023-04-01T06:20:22;10.50;;;4.87;;
7027;SDS011;3555;53.248;10.336;2023-04-01T06:22:59;9.43;;;4.07;;
7027;SDS011;3555;53.248;10.336;2023-04-01T06:25:38;6.80;;;4.20;;
7027;SDS011;3555;53.248;10.336;2023-04-01T06:28:38;8.30;;;4.60;;
7027;SDS011;3555;53.248;10.336;2023-04-01T06:31:22;7.27;;;4.17;;
7027;SDS011;3555;53.248;10.336;2023-04-01T06:34:03;8.80;;;4.63;;
7027;SDS011;3555;53.248;10.336;2023-04-01T06:36:45;6.57;;;4.37;;
7027;SDS011;3555;53.248;10.336;2023-04-01T06:39:37;9.63;;;4.50;;
7027;SDS011;3555;53.248;10.336;2023-04-01T06:42:34;12.50;;;4.73;;
7027;SDS011;3555;53.248;10.336;2023-04-01T06:45:13;6.90;;;4.20;;
7027;SDS011;3555;53.248;10.336;2023-04-01T06:48:01;9.33;;;4.73;;
7027;SDS011;3555;53.248;10.336;2023-04-01T06:50:42;7.80;;;4.50;;
7027;SDS011;3555;53.248;10.336;2023-04-01T06:53:19;9.83;;;4.90;;
7027;SDS011;3555;53.248;10.336;2023-04-01T06:55:51;10.50;;;5.17;;
7027;SDS011;3555;53.248;10.336;2023-04-01T06:58:22;3.27;;;2.73;;
7027;SDS011;3555;53.248;10.336;2023-04-01T07:00:51;1.70;;;1.60;;
7027;SDS011;3555;53.248;10.336;2023-04-01T07:03:21;2.40;;;1.70;;
7027;SDS011;3555;53.248;10.336;2023-04-01T07:05:58;2.10;;;1.70;;
7027;SDS011;3555;53.248;10.336;2023-04-01T07:08:31;1.70;;;1.40;;
7027;SDS011;3555;53.248;10.336;2023-04-01T07:11:01;1.70;;;1.60;;
7027;SDS011;3555;53.248;10.336;2023-04-01T07:13:31;2.30;;;1.97;;
7027;SDS011;3555;53.248;10.336;2023-04-01T07:16:07;2.00;;;1.70;;
7027;SDS011;3555;53.248;10.336;2023-04-01T07:18:41;2.63;;;1.90;;
7027;SDS011;3555;53.248;10.336;2023-04-01T07:21:22;2.47;;;1.80;;
7027;SDS011;3555;53.248;10.336;2023-04-01T07:23:54;1.73;;;1.50;;
7027;SDS011;3555;53.248;10.336;2023-04-01T07:26:26;1.67;;;1.50;;
7027;SDS011;3555;53.248;10.336;2023-04-01T07:28:53;2.00;;;1.70;;
7027;SDS011;3555;53.248;10.336;2023-04-01T07:31:25;2.20;;;1.40;;
7027;SDS011;3555;53.248;10.336;2023-04-01T07:34:08;1.80;;;1.50;;
7027;SDS011;3555;53.248;10.336;2023-04-01T07:36:39;1.50;;;1.40;;
7027;SDS011;3555;53.248;10.336;2023-04-01T07:39:15;2.33;;;1.50;;
7027;SDS011;3555;53.248;10.336;2023-04-01T07:41:53;1.90;;;1.60;;
7027;SDS011;3555;53.248;10.336;2023-04-01T07:44:28;1.80;;;1.40;;
7027;SDS011;3555;53.248;10.336;2023-04-01T07:47:11;1.20;;;1.03;;
7027;SDS011;3555;53.248;10.336;2023-04-01T07:49:51;1.33;;;1.23;;
7027;SDS011;3555;53.248;10.336;2023-04-01T07:52:30;4.87;;;1.40;;
7027;SDS011;3555;53.248;10.336;2023-04-01T07:55:05;1.37;;;1.20;;
7027;SDS011;3555;53.248;10.336;2023-04-01T07:57:38;1.23;;;1.10;;
7027;SDS011;3555;53.248;10.336;2023-04-01T08:00:12;1.50;;;1.10;;
7027;SDS011;3555;53.248;10.336;2023-04-01T08:02:48;1.57;;;1.20;;
7027;SDS011;3555;53.248;10.336;2023-04-01T08:05:32;1.40;;;1.30;;
7027;SDS011;3555;53.248;10.336;2023-04-01T08:08:07;1.53;;;1.20;;
7027;SDS011;3555;53.248;10.336;2023-04-01T08:10:43;1.20;;;1.10;;
7027;SDS011;3555;53.248;10.336;2023-04-01T08:13:16;1.40;;;1.20;;
7027;SDS011;3555;53.248;10.336;2023-04-01T08:15:53;1.67;;;1.37;;
7027;SDS011;3555;53.248;10.336;2023-04-01T08:18:29;1.20;;;1.10;;
7027;SDS011;3555;53.248;10.336;2023-04-01T08:21:05;1.60;;;1.40;;
7027;SDS011;3555;53.248;10.336;2023-04-01T08:23:38;7.63;;;1.87;;
7027;SDS011;3555;53.248;10.336;2023-04-01T08:26:12;1.40;;;1.10;;
7027;SDS011;3555;53.248;10.336;2023-04-01T08:28:50;1.50;;;1.20;;
7027;SDS011;3555;53.248;10.336;2023-04-01T08:31:22;1.20;;;1.00;;
7027;SDS011;3555;53.248;10.336;2023-04-01T08:33:53;1.50;;;1.10;;
7027;SDS011;3555;53.248;10.336;2023-04-01T08:36:22;1.63;;;1.20;;
7027;SDS011;3555;53.248;10.336;2023-04-01T08:38:54;1.20;;;1.10;;
7027;SDS011;3555;53.248;10.336;2023-04-01T08:41:49;1.70;;;1.30;;
7027;SDS011;3555;53.248;10.336;2023-04-01T08:44:52;1.30;;;1.20;;
7027;SDS011;3555;53.248;10.336;2023-04-01T08:47:36;1.40;;;1.13;;
7027;SDS011;3555;53.248;10.336;2023-04-01T08:50:32;1.30;;;1.10;;
7027;SDS011;3555;53.248;10.336;2023-04-01T08:53:14;1.23;;;1.10;;
7027;SDS011;3555;53.248;10.336;2023-04-01T08:55:51;1.30;;;1.00;;
7027;SDS011;3555;53.248;10.336;2023-04-01T08:58:42;1.63;;;1.50;;
7027;SDS011;3555;53.248;10.336;2023-04-01T09:01:25;1.10;;;1.00;;
7027;SDS011;3555;53.248;10.336;2023-04-01T09:04:05;1.37;;;1.00;;
7027;SDS011;3555;53.248;10.336;2023-04-01T09:06:56;1.43;;;1.20;;
7027;SDS011;3555;53.248;10.336;2023-04-01T09:09:49;1.60;;;1.03;;
7027;SDS011;3555;53.248;10.336;2023-04-01T09:12:52;1.10;;;1.00;;
7027;SDS011;3555;53.248;10.336;2023-04-01T09:15:50;1.70;;;1.30;;
7027;SDS011;3555;53.248;10.336;2023-04-01T09:21:29;1.30;;;1.10;;
7027;SDS011;3555;53.248;10.336;2023-04-01T09:24:19;1.70;;;1.30;;
7027;SDS011;3555;53.248;10.336;2023-04-01T09:27:05;1.83;;;1.30;;
7027;SDS011;3555;53.248;10.336;2023-04-01T09:29:43;2.20;;;1.20;;
7027;SDS011;3555;53.248;10.336;2023-04-01T09:32:35;1.40;;;1.20;;
7027;SDS011;3555;53.248;10.336;2023-04-01T09:35:36;1.37;;;1.10;;
7027;SDS011;3555;53.248;10.336;2023-04-01T09:38:17;1.30;;;1.00;;
7027;SDS011;3555;53.248;10.336;2023-04-01T09:40:50;1.53;;;1.20;;
7027;SDS011;3555;53.248;10.336;2023-04-01T09:43:25;1.30;;;1.20;;
7027;SDS011;3555;53.248;10.336;2023-04-01T09:45:58;1.60;;;1.20;;
7027;SDS011;3555;53.248;10.336;2023-04-01T09:48:53;1.40;;;1.27;;
7027;SDS011;3555;53.248;10.336;2023-04-01T09:51:46;1.47;;;1.30;;
7027;SDS011;3555;53.248;10.336;2023-04-01T09:54:26;2.60;;;1.30;;
7027;SDS011;3555;53.248;10.336;2023-04-01T09:57:15;1.70;;;1.40;;
7027;SDS011;3555;53.248;10.336;2023-04-01T10:00:18;2.03;;;1.10;;
7027;SDS011;3555;53.248;10.336;2023-04-01T10:06:08;1.50;;;1.30;;
7027;SDS011;3555;53.248;10.336;2023-04-01T10:15:29;1.50;;;1.40;;
7027;SDS011;3555;53.248;10.336;2023-04-01T10:18:21;1.40;;;1.30;;
7027;SDS011;3555;53.248;10.336;2023-04-01T10:22:48;1.90;;;1.30;;
7027;SDS011;3555;53.248;10.336;2023-04-01T10:25:42;1.40;;;1.30;;
7027;SDS011;3555;53.248;10.336;2023-04-01T10:28:52;3.37;;;1.50;;
7027;SDS011;3555;53.248;10.336;2023-04-01T10:34:48;1.77;;;1.37;;
7027;SDS011;3555;53.248;10.336;2023-04-01T10:37:42;1.50;;;1.20;;
7027;SDS011;3555;53.248;10.336;2023-04-01T10:40:37;1.50;;;1.20;;
7027;SDS011;3555;53.248;10.336;2023-04-01T10:43:41;1.87;;;1.20;;
7027;SDS011;3555;53.248;10.336;2023-04-01T10:52:59;1.50;;;1.20;;
7027;SDS011;3555;53.248;10.336;2023-04-01T10:59:02;1.70;;;1.30;;
7027;SDS011;3555;53.248;10.336;2023-04-01T11:02:09;2.23;;;1.50;;
7027;SDS011;3555;53.248;10.336;2023-04-01T11:08:44;1.83;;;1.20;;
7027;SDS011;3555;53.248;10.336;2023-04-01T11:30:14;1.70;;;1.10;;
7027;SDS011;3555;53.248;10.336;2023-04-01T11:33:00;1.50;;;1.27;;
7027;SDS011;3555;53.248;10.336;2023-04-01T11:38:38;1.67;;;1.10;;
7027;SDS011;3555;53.248;10.336;2023-04-01T11:41:30;1.13;;;1.00;;
7027;SDS011;3555;53.248;10.336;2023-04-01T11:44:08;1.50;;;1.20;;
7027;SDS011;3555;53.248;10.336;2023-04-01T11:46:46;4.70;;;1.10;;
7027;SDS011;3555;53.248;10.336;2023-04-01T11:49:29;1.60;;;1.10;;
7027;SDS011;3555;53.248;10.336;2023-04-01T11:52:10;2.70;;;1.30;;
7027;SDS011;3555;53.248;10.336;2023-04-01T11:55:05;1.80;;;1.60;;
7027;SDS011;3555;53.248;10.336;2023-04-01T11:57:46;2.10;;;1.30;;
7027;SDS011;3555;53.248;10.336;2023-04-01T12:00:42;1.77;;;1.50;;
7027;SDS011;3555;53.248;10.336;2023-04-01T12:03:29;1.43;;;1.23;;
7027;SDS011;3555;53.248;10.336;2023-04-01T12:06:08;2.40;;;1.10;;
7027;SDS011;3555;53.248;10.336;2023-04-01T12:08:42;1.80;;;1.20;;
7027;SDS011;3555;53.248;10.336;2023-04-01T12:11:20;1.87;;;1.40;;
7027;SDS011;3555;53.248;10.336;2023-04-01T12:13:55;1.60;;;1.30;;
7027;SDS011;3555;53.248;10.336;2023-04-01T12:16:36;1.30;;;1.10;;
7027;SDS011;3555;53.248;10.336;2023-04-01T12:19:19;2.10;;;1.40;;
7027;SDS011;3555;53.248;10.336;2023-04-01T12:21:56;3.20;;;1.60;;
7027;SDS011;3555;53.248;10.336;2023-04-01T12:24:36;1.70;;;1.60;;
7027;SDS011;3555;53.248;10.336;2023-04-01T12:27:20;3.13;;;1.77;;
7027;SDS011;3555;53.248;10.336;2023-04-01T12:36:01;2.43;;;1.70;;
7027;SDS011;3555;53.248;10.336;2023-04-01T12:38:42;1.63;;;1.47;;
7027;SDS011;3555;53.248;10.336;2023-04-01T12:41:18;1.80;;;1.60;;
7027;SDS011;3555;53.248;10.336;2023-04-01T12:46:48;4.70;;;2.50;;
7027;SDS011;3555;53.248;10.336;2023-04-01T12:49:42;2.63;;;2.13;;
7027;SDS011;3555;53.248;10.336;2023-04-01T12:52:33;2.67;;;2.20;;
7027;SDS011;3555;53.248;10.336;2023-04-01T12:55:15;3.90;;;2.73;;
7027;SDS011;3555;53.248;10.336;2023-04-01T12:58:19;3.30;;;2.37;;
7027;SDS011;3555;53.248;10.336;2023-04-01T13:01:16;3.03;;;2.20;;
7027;SDS011;3555;53.248;10.336;2023-04-01T13:04:02;3.73;;;2.60;;
7027;SDS011;3555;53.248;10.336;2023-04-01T13:06:51;2.73;;;2.23;;
7027;SDS011;3555;53.248;10.336;2023-04-01T13:09:34;2.73;;;2.20;;
7027;SDS011;3555;53.248;10.336;2023-04-01T13:12:17;3.13;;;2.20;;
7027;SDS011;3555;53.248;10.336;2023-04-01T13:17:48;3.73;;;2.50;;
7027;SDS011;3555;53.248;10.336;2023-04-01T13:20:22;4.77;;;2.80;;
7027;SDS011;3555;53.248;10.336;2023-04-01T13:23:01;3.37;;;2.57;;
7027;SDS011;3555;53.248;10.336;2023-04-01T13:25:39;3.50;;;2.50;;
7027;SDS011;3555;53.248;10.336;2023-04-01T13:28:12;3.43;;;3.10;;
7027;SDS011;3555;53.248;10.336;2023-04-01T13:30:44;3.87;;;2.90;;
7027;SDS011;3555;53.248;10.336;2023-04-01T13:33:20;4.13;;;3.20;;
7027;SDS011;3555;53.248;10.336;2023-04-01T13:35:57;5.43;;;2.60;;
7027;SDS011;3555;53.248;10.336;2023-04-01T13:38:45;4.13;;;2.70;;
7027;SDS011;3555;53.248;10.336;2023-04-01T13:41:22;4.17;;;2.70;;
7027;SDS011;3555;53.248;10.336;2023-04-01T13:44:02;4.20;;;2.90;;
7027;SDS011;3555;53.248;10.336;2023-04-01T13:46:47;3.87;;;3.07;;
7027;SDS011;3555;53.248;10.336;2023-04-01T13:49:30;5.10;;;3.00;;
7027;SDS011;3555;53.248;10.336;2023-04-01T13:52:31;3.80;;;2.97;;
7027;SDS011;3555;53.248;10.336;2023-04-01T13:58:16;4.50;;;2.87;;
7027;SDS011;3555;53.248;10.336;2023-04-01T14:01:01;3.13;;;2.43;;
7027;SDS011;3555;53.248;10.336;2023-04-01T14:03:41;5.47;;;3.07;;
7027;SDS011;3555;53.248;10.336;2023-04-01T14:06:23;4.17;;;2.60;;
7027;SDS011;3555;53.248;10.336;2023-04-01T14:09:05;3.43;;;2.83;;
7027;SDS011;3555;53.248;10.336;2023-04-01T14:11:48;3.13;;;2.47;;
7027;SDS011;3555;53.248;10.336;2023-04-01T14:14:27;4.60;;;2.77;;
7027;SDS011;3555;53.248;10.336;2023-04-01T14:22:52;4.07;;;2.50;;
7027;SDS011;3555;53.248;10.336;2023-04-01T14:25:39;3.50;;;2.30;;
7027;SDS011;3555;53.248;10.336;2023-04-01T14:28:18;4.10;;;2.43;;
7027;SDS011;3555;53.248;10.336;2023-04-01T14:30:57;3.60;;;3.10;;
7027;SDS011;3555;53.248;10.336;2023-04-01T14:33:40;3.43;;;2.40;;
7027;SDS011;3555;53.248;10.336;2023-04-01T14:36:24;3.93;;;3.37;;
7027;SDS011;3555;53.248;10.336;2023-04-01T14:39:10;5.87;;;2.50;;
7027;SDS011;3555;53.248;10.336;2023-04-01T14:41:51;3.70;;;2.40;;
7027;SDS011;3555;53.248;10.336;2023-04-01T14:44:45;4.13;;;2.37;;
7027;SDS011;3555;53.248;10.336;2023-04-01T14:47:36;3.17;;;2.17;;
7027;SDS011;3555;53.248;10.336;2023-04-01T14:50:13;4.03;;;2.57;;
7027;SDS011;3555;53.248;10.336;2023-04-01T14:52:44;5.93;;;2.70;;
7027;SDS011;3555;53.248;10.336;2023-04-01T14:55:25;4.80;;;2.53;;
7027;SDS011;3555;53.248;10.336;2023-04-01T14:58:04;3.77;;;2.73;;
7027;SDS011;3555;53.248;10.336;2023-04-01T15:00:46;5.37;;;2.70;;
7027;SDS011;3555;53.248;10.336;2023-04-01T15:03:18;5.37;;;2.70;;
7027;SDS011;3555;53.248;10.336;2023-04-01T15:05:51;6.00;;;3.00;;
7027;SDS011;3555;53.248;10.336;2023-04-01T15:08:22;8.63;;;3.27;;
7027;SDS011;3555;53.248;10.336;2023-04-01T15:11:00;6.77;;;2.70;;
7027;SDS011;3555;53.248;10.336;2023-04-01T15:13:53;4.70;;;3.00;;
7027;SDS011;3555;53.248;10.336;2023-04-01T15:16:46;6.13;;;3.00;;
7027;SDS011;3555;53.248;10.336;2023-04-01T15:19:23;4.00;;;2.90;;
7027;SDS011;3555;53.248;10.336;2023-04-01T15:24:57;5.33;;;3.23;;
7027;SDS011;3555;53.248;10.336;2023-04-01T15:27:54;4.80;;;3.37;;
7027;SDS011;3555;53.248;10.336;2023-04-01T15:30:27;4.10;;;2.97;;
7027;SDS011;3555;53.248;10.336;2023-04-01T15:33:06;7.23;;;3.40;;
7027;SDS011;3555;53.248;10.336;2023-04-01T15:35:43;4.00;;;3.17;;
7027;SDS011;3555;53.248;10.336;2023-04-01T15:38:19;8.67;;;3.97;;
7027;SDS011;3555;53.248;10.336;2023-04-01T15:40:55;4.57;;;3.70;;
7027;SDS011;3555;53.248;10.336;2023-04-01T15:43:31;9.57;;;4.20;;
7027;SDS011;3555;53.248;10.336;2023-04-01T15:46:13;5.43;;;3.93;;
7027;SDS011;3555;53.248;10.336;2023-04-01T15:49:01;5.47;;;3.40;;
7027;SDS011;3555;53.248;10.336;2023-04-01T15:51:39;9.63;;;3.83;;
7027;SDS011;3555;53.248;10.336;2023-04-01T15:54:25;4.83;;;3.43;;
7027;SDS011;3555;53.248;10.336;2023-04-01T15:57:05;5.87;;;4.70;;
7027;SDS011;3555;53.248;10.336;2023-04-01T15:59:47;4.70;;;3.60;;
7027;SDS011;3555;53.248;10.336;2023-04-01T16:02:33;5.47;;;3.70;;
7027;SDS011;3555;53.248;10.336;2023-04-01T16:05:08;6.80;;;3.90;;
7027;SDS011;3555;53.248;10.336;2023-04-01T16:07:55;7.33;;;4.40;;
7027;SDS011;3555;53.248;10.336;2023-04-01T16:10:52;6.50;;;3.87;;
7027;SDS011;3555;53.248;10.336;2023-04-01T16:13:30;5.83;;;4.07;;
7027;SDS011;3555;53.248;10.336;2023-04-01T16:16:13;5.50;;;4.20;;
7027;SDS011;3555;53.248;10.336;2023-04-01T16:18:56;8.30;;;3.70;;
7027;SDS011;3555;53.248;10.336;2023-04-01T16:21:37;7.40;;;3.90;;
7027;SDS011;3555;53.248;10.336;2023-04-01T16:24:12;11.33;;;5.20;;
7027;SDS011;3555;53.248;10.336;2023-04-01T16:26:44;6.47;;;4.30;;
7027;SDS011;3555;53.248;10.336;2023-04-01T16:29:19;7.70;;;4.40;;
7027;SDS011;3555;53.248;10.336;2023-04-01T16:31:54;9.33;;;4.57;;
7027;SDS011;3555;53.248;10.336;2023-04-01T16:34:41;7.97;;;4.20;;
7027;SDS011;3555;53.248;10.336;2023-04-01T16:37:14;7.57;;;4.67;;
7027;SDS011;3555;53.248;10.336;2023-04-01T16:39:47;8.97;;;4.90;;
7027;SDS011;3555;53.248;10.336;2023-04-01T16:42:24;8.77;;;4.70;;
7027;SDS011;3555;53.248;10.336;2023-04-01T16:44:59;7.63;;;4.07;;
7027;SDS011;3555;53.248;10.336;2023-04-01T16:47:45;4.20;;;3.80;;
7027;SDS011;3555;53.248;10.336;2023-04-01T16:50:15;6.37;;;3.77;;
7027;SDS011;3555;53.248;10.336;2023-04-01T16:52:51;7.10;;;4.03;;
7027;SDS011;3555;53.248;10.336;2023-04-01T16:55:33;7.57;;;4.17;;
7027;SDS011;3555;53.248;10.336;2023-04-01T16:58:01;7.87;;;3.80;;
7027;SDS011;3555;53.248;10.336;2023-04-01T17:00:29;6.20;;;3.90;;
7027;SDS011;3555;53.248;10.336;2023-04-01T17:03:08;8.30;;;4.20;;
7027;SDS011;3555;53.248;10.336;2023-04-01T17:05:45;6.87;;;3.90;;
7027;SDS011;3555;53.248;10.336;2023-04-01T17:08:24;6.13;;;4.10;;
7027;SDS011;3555;53.248;10.336;2023-04-01T17:11:07;5.50;;;4.00;;
7027;SDS011;3555;53.248;10.336;2023-04-01T17:13:45;6.03;;;3.90;;
7027;SDS011;3555;53.248;10.336;2023-04-01T17:19:22;7.43;;;4.10;;
7027;SDS011;3555;53.248;10.336;2023-04-01T17:21:57;6.53;;;4.27;;